Time;durP1;ratioP1;P1;durP2;ratioP2;P2;SDS_P1;SDS_P2;PMS_P1;PMS_P2;Temp;Humidity;BMP_temperature;BMP_pressure;BME280_temperature;BME280_humidity;BME280_pressure;Samples;Min_cycle;Max_cycle;Signal;HPM_P1;HPM_P2
2021/12/19 00:01:51;;;;;;;22.42;13.98;;;;;;;5.05;100.00;101913.97;4976228;28;20053;-72
2021/12/19 00:10:27;;;;;;;22.42;13.05;;;;;;;4.81;100.00;101913.38;4975843;28;20042;-71
2021/12/19 00:13:13;;;;;;;22.30;13.52;;;;;;;4.66;100.00;101913.88;4976650;28;20067;-72
2021/12/19 00:15:59;;;;;;;24.30;13.48;;;;;;;4.60;100.00;101912.84;4961850;28;20030;-71
2021/12/19 00:18:47;;;;;;;20.40;13.45;;;;;;;4.76;100.00;101908.09;4976129;28;20049;-73
2021/12/19 00:21:32;;;;;;;21.63;13.35;;;;;;;4.96;100.00;101906.88;4975546;28;20031;-72
2021/12/19 00:24:18;;;;;;;23.58;13.18;;;;;;;4.84;100.00;101903.09;4976590;28;20375;-73
2021/12/19 00:27:04;;;;;;;18.52;12.85;;;;;;;4.72;100.00;101898.47;4976158;28;20470;-73
2021/12/19 00:29:50;;;;;;;19.08;11.95;;;;;;;4.78;100.00;101890.81;4975789;28;20101;-72
2021/12/19 00:32:36;;;;;;;22.10;13.15;;;;;;;4.63;100.00;101879.19;4975520;28;20443;-72
2021/12/19 00:35:22;;;;;;;19.38;12.88;;;;;;;4.27;100.00;101884.31;4975829;28;20128;-73
2021/12/19 00:38:08;;;;;;;21.02;13.30;;;;;;;4.42;100.00;101874.34;4961741;28;20038;-73
2021/12/19 00:40:54;;;;;;;20.60;13.45;;;;;;;4.25;100.00;101875.63;4962179;28;20041;-72
2021/12/19 00:43:53;;;;;;;22.45;14.23;;;;;;;4.41;100.00;101867.41;4976249;28;20101;-72
2021/12/19 00:46:49;;;;;;;19.50;13.07;;;;;;;4.50;100.00;101858.94;4961959;28;20367;-72
2021/12/19 00:49:35;;;;;;;22.10;13.75;;;;;;;4.45;100.00;101865.75;4962243;28;20106;-71
2021/12/19 00:52:22;;;;;;;21.42;14.40;;;;;;;4.36;100.00;101863.81;4963326;28;20045;-72
2021/12/19 00:55:08;;;;;;;23.23;14.68;;;;;;;3.68;100.00;101855.91;4965797;28;20054;-73
2021/12/19 00:57:55;;;;;;;24.45;15.43;;;;;;;3.78;100.00;101877.75;4965491;28;20026;-73
2021/12/19 01:00:41;;;;;;;24.80;15.25;;;;;;;3.34;100.00;101873.00;4979288;28;20454;-72
2021/12/19 01:03:27;;;;;;;26.90;16.45;;;;;;;3.28;100.00;101862.44;4965355;28;20099;-73
2021/12/19 01:06:17;;;;;;;27.63;17.00;;;;;;;3.55;100.00;101869.34;4979734;28;20058;-73
2021/12/19 01:09:03;;;;;;;26.52;16.45;;;;;;;3.33;100.00;101864.34;4978984;28;20130;-70
2021/12/19 01:11:49;;;;;;;24.15;15.70;;;;;;;3.13;100.00;101855.09;4965360;28;20034;-71
2021/12/19 01:14:36;;;;;;;26.77;16.15;;;;;;;3.65;100.00;101849.72;4978955;28;20146;-71
2021/12/19 01:17:22;;;;;;;29.45;16.13;;;;;;;3.92;100.00;101847.91;4979298;28;20041;-72
2021/12/19 01:20:14;;;;;;;26.85;16.58;;;;;;;3.93;100.00;101854.84;4979420;28;20077;-72
2021/12/19 01:23:00;;;;;;;25.55;15.75;;;;;;;3.89;100.00;101853.88;4979288;28;20027;-70
2021/12/19 01:25:47;;;;;;;24.77;15.88;;;;;;;3.95;100.00;101840.22;4978897;28;20518;-74
2021/12/19 01:28:33;;;;;;;22.80;15.20;;;;;;;3.97;100.00;101838.53;4979051;28;20035;-73
2021/12/19 01:31:19;;;;;;;21.63;13.57;;;;;;;3.91;100.00;101836.66;4978550;28;20030;-74
2021/12/19 01:34:05;;;;;;;22.85;13.15;;;;;;;4.00;100.00;101834.31;4978142;28;20034;-72
2021/12/19 01:36:51;;;;;;;20.92;12.63;;;;;;;3.67;100.00;101814.38;4978544;28;20050;-73
2021/12/19 01:39:36;;;;;;;21.42;12.93;;;;;;;3.72;100.00;101810.19;4978558;28;20041;-72
2021/12/19 01:42:30;;;;;;;21.33;12.95;;;;;;;3.86;100.00;101812.31;4978576;28;20023;-72
2021/12/19 01:45:26;;;;;;;20.42;13.27;;;;;;;3.71;100.00;101800.69;4978358;28;20023;-72
2021/12/19 01:48:13;;;;;;;19.40;12.32;;;;;;;3.81;100.00;101800.97;4965295;28;20519;-72
2021/12/19 01:50:58;;;;;;;20.25;12.85;;;;;;;3.40;100.00;101795.47;4977756;28;20360;-73
2021/12/19 01:53:44;;;;;;;20.80;12.23;;;;;;;3.45;100.00;101796.47;4978791;28;20038;-72
2021/12/19 01:56:31;;;;;;;20.50;12.02;;;;;;;3.39;100.00;101789.44;4978006;28;20031;-71
2021/12/19 01:59:17;;;;;;;17.63;11.68;;;;;;;3.28;100.00;101774.41;4964997;28;20045;-71
2021/12/19 02:02:03;;;;;;;18.30;11.30;;;;;;;3.36;100.00;101781.56;4977931;28;20111;-72
2021/12/19 02:04:49;;;;;;;15.05;10.63;;;;;;;3.11;100.00;101761.00;4977553;28;20472;-73
2021/12/19 02:07:35;;;;;;;16.65;10.75;;;;;;;3.19;100.00;101746.56;4978321;28;20113;-72
2021/12/19 02:10:26;;;;;;;21.98;11.13;;;;;;;3.18;100.00;101747.34;4978439;28;20078;-71
2021/12/19 02:13:15;;;;;;;16.17;10.32;;;;;;;3.16;100.00;101745.56;4978447;28;20137;-73
2021/12/19 02:16:01;;;;;;;17.38;10.43;;;;;;;3.62;100.00;101743.44;4977743;28;20023;-73
2021/12/19 02:18:46;;;;;;;19.00;11.02;;;;;;;3.28;100.00;101736.44;4978069;28;20035;-72
2021/12/19 02:21:32;;;;;;;18.38;10.07;;;;;;;3.03;100.00;101728.81;4977952;28;20027;-74
2021/12/19 02:24:18;;;;;;;15.10;10.45;;;;;;;2.91;100.00;101731.06;4977883;28;20027;-72
2021/12/19 02:27:04;;;;;;;16.48;10.02;;;;;;;3.03;100.00;101725.34;4964120;28;20030;-72
2021/12/19 02:29:50;;;;;;;15.70;10.45;;;;;;;2.97;100.00;101728.63;4964173;28;20062;-74
2021/12/19 02:32:38;;;;;;;17.85;11.40;;;;;;;2.90;100.00;101721.50;4963939;28;20030;-72
2021/12/19 02:35:29;;;;;;;19.27;11.75;;;;;;;2.73;100.00;101720.16;4977871;28;20365;-72
2021/12/19 02:38:37;;;;;;;19.02;11.48;;;;;;;3.06;100.00;101709.91;4977379;28;20101;-73
2021/12/19 02:50:49;;;;;;;22.38;12.15;;;;;;;2.77;100.00;101690.09;4977093;28;20423;-72
2021/12/19 02:53:38;;;;;;;19.23;11.75;;;;;;;2.81;100.00;101685.03;4977415;28;20073;-73
2021/12/19 02:56:24;;;;;;;20.50;11.85;;;;;;;2.72;100.00;101683.88;4976927;28;20030;-72
2021/12/19 02:59:10;;;;;;;19.75;11.52;;;;;;;2.84;100.00;101685.13;4963972;28;20031;-72
2021/12/19 03:01:55;;;;;;;22.20;12.15;;;;;;;2.63;100.00;101681.03;4977023;28;20058;-71
2021/12/19 03:04:57;;;;;;;21.08;11.93;;;;;;;2.84;100.00;101677.34;4977466;28;20112;-73
2021/12/19 03:07:43;;;;;;;20.65;11.68;;;;;;;3.12;100.00;101672.13;4963410;28;20026;-72
2021/12/19 03:19:14;;;;;;;18.15;10.90;;;;;;;3.03;100.00;101665.81;4976621;28;20046;-71
2021/12/19 03:22:00;;;;;;;18.77;10.23;;;;;;;3.23;100.00;101656.88;4962830;28;20077;-71
2021/12/19 03:24:46;;;;;;;17.55;11.32;;;;;;;3.29;100.00;101657.03;4963120;28;20031;-72
2021/12/19 03:27:32;;;;;;;17.33;10.55;;;;;;;2.76;100.00;101654.69;4976380;28;20034;-71
2021/12/19 03:30:18;;;;;;;19.33;10.95;;;;;;;2.99;100.00;101656.22;4976582;28;20027;-72
2021/12/19 03:33:05;;;;;;;16.52;9.90;;;;;;;3.14;100.00;101654.91;4976210;28;20037;-72
2021/12/19 03:35:51;;;;;;;17.27;10.57;;;;;;;2.99;100.00;101649.34;4976306;28;20444;-72
2021/12/19 03:38:41;;;;;;;18.38;10.85;;;;;;;3.54;100.00;101636.13;4976314;28;20023;-71
2021/12/19 03:41:34;;;;;;;18.08;10.52;;;;;;;3.06;100.00;101643.47;4976690;28;20388;-73
2021/12/19 03:44:19;;;;;;;17.80;10.32;;;;;;;3.01;100.00;101642.47;4976287;28;20073;-72
2021/12/19 03:47:05;;;;;;;17.85;10.15;;;;;;;3.11;100.00;101631.53;4962552;28;20463;-71
2021/12/19 03:49:51;;;;;;;14.18;9.95;;;;;;;3.20;100.00;101625.72;4962301;28;20031;-72
2021/12/19 03:52:37;;;;;;;15.65;10.80;;;;;;;3.38;100.00;101619.31;4975989;28;20118;-71
2021/12/19 03:55:25;;;;;;;16.42;10.52;;;;;;;3.22;100.00;101621.47;4976377;28;20057;-72
2021/12/19 03:58:12;;;;;;;17.65;10.40;;;;;;;2.96;100.00;101610.41;4962315;28;20030;-72
2021/12/19 04:01:00;;;;;;;17.23;10.55;;;;;;;2.65;100.00;101607.81;4976310;28;20181;-71
2021/12/19 04:03:46;;;;;;;20.17;12.02;;;;;;;2.97;100.00;101599.22;4975704;28;20026;-72
2021/12/19 04:06:32;;;;;;;19.88;11.85;;;;;;;3.27;100.00;101596.56;4976509;28;20034;-72
2021/12/19 04:09:18;;;;;;;19.27;12.00;;;;;;;2.80;100.00;101594.41;4976310;28;20019;-72
2021/12/19 04:12:04;;;;;;;23.73;12.45;;;;;;;2.94;100.00;101590.50;4975935;28;20599;-70
2021/12/19 04:14:50;;;;;;;16.77;10.95;;;;;;;2.84;100.00;101591.06;4975706;28;20037;-73
2021/12/19 04:17:37;;;;;;;18.38;11.15;;;;;;;2.53;100.00;101597.09;4976641;28;20557;-71
2021/12/19 04:20:22;;;;;;;19.30;12.18;;;;;;;2.91;100.00;101588.72;4975830;28;20041;-72
2021/12/19 04:23:09;;;;;;;20.02;12.07;;;;;;;2.62;100.00;101580.97;4975769;28;20037;-72
2021/12/19 04:25:55;;;;;;;18.90;11.95;;;;;;;2.64;100.00;101584.47;4974980;28;20046;-72
2021/12/19 04:28:41;;;;;;;20.77;11.73;;;;;;;2.38;100.00;101586.34;4976673;28;20033;-72
2021/12/19 04:31:27;;;;;;;19.52;11.10;;;;;;;2.62;100.00;101566.31;4975893;28;20031;-72
2021/12/19 04:34:13;;;;;;;21.35;12.30;;;;;;;2.64;100.00;101571.53;4975540;28;20041;-72
2021/12/19 04:37:08;;;;;;;17.83;12.07;;;;;;;2.72;100.00;101575.22;4975822;28;20042;-72
2021/12/19 04:40:06;;;;;;;19.45;11.40;;;;;;;2.49;100.00;101574.56;4961735;28;20042;-72
2021/12/19 04:57:44;;;;;;;18.25;11.40;;;;;;;2.49;100.00;101572.00;4975679;28;20027;-72
2021/12/19 05:00:39;;;;;;;16.98;11.35;;;;;;;2.41;100.00;101563.13;4975524;28;20018;-73
2021/12/19 05:15:32;;;;;;;16.63;10.93;;;;;;;1.96;100.00;101560.91;4975006;28;20463;-72
2021/12/19 05:18:20;;;;;;;19.73;11.68;;;;;;;1.83;100.00;101563.94;4975670;28;20366;-71
2021/12/19 05:21:21;;;;;;;18.77;12.27;;;;;;;1.86;100.00;101567.53;4975855;28;20034;-72
2021/12/19 05:24:21;;;;;;;18.50;11.57;;;;;;;2.04;100.00;101564.59;4961591;28;20023;-72
2021/12/19 05:27:09;;;;;;;18.38;12.00;;;;;;;1.86;100.00;101564.94;4961221;28;20058;-73
2021/12/19 05:29:55;;;;;;;19.13;11.15;;;;;;;2.00;100.00;101566.22;4961432;28;20531;-72
2021/12/19 05:32:42;;;;;;;18.77;11.75;;;;;;;2.06;100.00;101568.13;4974850;28;20023;-73
2021/12/19 05:35:53;;;;;;;16.83;11.05;;;;;;;1.94;100.00;101576.38;4974868;28;20065;-72
2021/12/19 05:47:37;;;;;;;16.27;10.60;;;;;;;2.10;100.00;101568.28;4979132;28;20023;-72
2021/12/19 05:50:23;;;;;;;19.52;12.45;;;;;;;2.01;100.00;101557.63;4964797;28;20031;-74
2021/12/19 05:53:11;;;;;;;17.88;11.13;;;;;;;1.89;100.00;101554.69;4978552;28;20057;-72
2021/12/19 05:55:57;;;;;;;17.58;11.57;;;;;;;2.17;100.00;101546.91;4978073;28;20030;-73
2021/12/19 05:58:43;;;;;;;17.77;11.05;;;;;;;1.82;100.00;101549.28;4978077;28;20068;-72
2021/12/19 06:01:29;;;;;;;18.63;12.15;;;;;;;1.85;100.00;101547.66;4978795;28;20073;-71
2021/12/19 06:04:14;;;;;;;21.80;12.23;;;;;;;1.89;100.00;101552.09;4964483;28;20045;-73
2021/12/19 06:07:00;;;;;;;25.48;13.32;;;;;;;1.97;100.00;101547.19;4978035;28;20042;-72
2021/12/19 06:09:46;;;;;;;23.85;12.88;;;;;;;2.04;100.00;101539.66;4964099;28;20459;-73
2021/12/19 06:12:32;;;;;;;21.52;12.18;;;;;;;1.89;100.00;101541.75;4978315;28;20027;-73
2021/12/19 06:15:18;;;;;;;20.33;11.18;;;;;;;1.99;100.00;101536.06;4964063;28;20462;-73
2021/12/19 06:18:04;;;;;;;19.40;11.93;;;;;;;2.36;100.00;101536.28;4964399;28;20035;-74
2021/12/19 06:20:50;;;;;;;18.73;12.07;;;;;;;2.44;100.00;101541.66;4977913;28;20046;-73
2021/12/19 06:23:36;;;;;;;19.55;12.23;;;;;;;2.32;100.00;101539.63;4978036;28;20404;-74
2021/12/19 06:26:22;;;;;;;22.48;12.30;;;;;;;2.40;100.00;101535.53;4977901;28;20058;-72
2021/12/19 06:29:07;;;;;;;18.08;11.43;;;;;;;2.58;100.00;101520.50;4978410;28;20027;-72
2021/12/19 06:31:53;;;;;;;17.48;11.85;;;;;;;2.20;100.00;101523.75;4977919;28;20105;-73
2021/12/19 06:34:39;;;;;;;19.15;11.52;;;;;;;2.35;100.00;101520.72;4978248;28;20058;-71
2021/12/19 06:37:25;;;;;;;18.80;10.60;;;;;;;2.48;100.00;101513.34;4978020;28;20356;-73
2021/12/19 06:40:14;;;;;;;17.52;10.73;;;;;;;2.50;100.00;101514.28;4978007;28;20031;-73
2021/12/19 06:43:00;;;;;;;17.60;11.30;;;;;;;2.56;100.00;101508.38;4977741;28;20115;-73
2021/12/19 06:45:47;;;;;;;16.85;10.95;;;;;;;2.60;100.00;101503.34;4963720;28;20026;-73
2021/12/19 06:48:33;;;;;;;20.23;10.93;;;;;;;2.65;100.00;101500.88;4977327;28;20038;-72
2021/12/19 06:51:19;;;;;;;18.10;10.50;;;;;;;2.69;100.00;101494.97;4963149;28;20129;-73
2021/12/19 06:54:05;;;;;;;17.80;10.60;;;;;;;2.64;100.00;101486.19;4963673;28;20126;-72
2021/12/19 06:56:50;;;;;;;15.65;10.93;;;;;;;2.88;100.00;101485.13;4976923;28;20038;-71
2021/12/19 06:59:36;;;;;;;15.57;10.68;;;;;;;3.18;100.00;101482.41;4977223;28;20023;-72
2021/12/19 07:02:22;;;;;;;15.30;9.63;;;;;;;3.02;100.00;101480.28;4977169;28;20022;-73
2021/12/19 07:05:09;;;;;;;16.30;9.48;;;;;;;3.14;100.00;101465.06;4977029;28;20046;-72
2021/12/19 07:07:54;;;;;;;15.60;9.23;;;;;;;2.94;100.00;101467.13;4976943;28;20039;-71
2021/12/19 07:10:40;;;;;;;14.48;9.20;;;;;;;2.86;100.00;101467.81;4976812;28;20523;-73
2021/12/19 07:13:26;;;;;;;14.63;9.27;;;;;;;2.95;100.00;101455.09;4976700;28;20030;-73
2021/12/19 07:16:12;;;;;;;17.60;11.00;;;;;;;2.99;100.00;101451.75;4976539;28;20444;-74
2021/12/19 07:18:58;;;;;;;13.43;8.90;;;;;;;2.87;100.00;101451.44;4976701;28;20388;-73
2021/12/19 07:21:44;;;;;;;15.52;8.98;;;;;;;3.45;100.00;101449.38;4975534;28;20325;-73
2021/12/19 07:24:30;;;;;;;16.13;9.50;;;;;;;3.37;100.00;101443.16;4977014;28;20358;-73
2021/12/19 07:27:15;;;;;;;16.35;9.30;;;;;;;3.12;100.00;101439.13;4976898;28;20135;-74
2021/12/19 07:30:02;;;;;;;17.70;9.45;;;;;;;3.65;100.00;101430.84;4976551;28;20102;-74
2021/12/19 07:32:48;;;;;;;13.38;8.63;;;;;;;3.85;100.00;101428.69;4976324;28;20396;-74
2021/12/19 07:35:37;;;;;;;12.10;8.05;;;;;;;3.67;100.00;101433.50;4976289;28;20373;-74
2021/12/19 07:38:35;;;;;;;11.25;7.38;;;;;;;4.19;100.00;101421.59;4976455;28;20359;-73
2021/12/19 07:41:20;;;;;;;11.77;7.45;;;;;;;3.96;100.00;101417.72;4961749;28;20035;-73
2021/12/19 07:44:07;;;;;;;10.27;6.93;;;;;;;4.76;100.00;101420.09;4976168;28;20019;-73
2021/12/19 07:46:53;;;;;;;10.63;6.82;;;;;;;4.36;100.00;101419.34;4976614;28;20101;-72
2021/12/19 07:49:39;;;;;;;11.27;7.53;;;;;;;4.21;100.00;101411.25;4976061;28;20053;-73
2021/12/19 07:52:25;;;;;;;11.35;7.65;;;;;;;4.89;100.00;101421.16;4962475;28;20170;-73
2021/12/19 07:55:10;;;;;;;12.80;7.50;;;;;;;4.94;100.00;101419.50;4976235;28;20027;-74
2021/12/19 07:57:56;;;;;;;11.73;7.65;;;;;;;5.27;100.00;101426.09;4974811;28;20367;-74
2021/12/19 08:00:42;;;;;;;10.32;7.13;;;;;;;5.09;100.00;101420.63;4975850;28;20333;-74
2021/12/19 08:03:28;;;;;;;12.27;7.20;;;;;;;5.05;100.00;101416.25;4975752;28;20033;-73
2021/12/19 08:06:14;;;;;;;10.23;6.93;;;;;;;5.26;100.00;101416.56;4976255;28;20058;-73
2021/12/19 08:09:09;;;;;;;11.57;7.55;;;;;;;5.18;100.00;101407.78;4975877;28;20051;-72
2021/12/19 08:11:56;;;;;;;11.65;7.63;;;;;;;4.78;100.00;101418.38;4975942;28;20034;-74
2021/12/19 08:14:41;;;;;;;12.32;6.90;;;;;;;5.09;100.00;101420.63;4974879;28;20031;-73
2021/12/19 08:17:27;;;;;;;11.02;6.78;;;;;;;5.13;100.00;101414.63;4974597;28;20034;-73
2021/12/19 08:20:15;;;;;;;12.45;8.07;;;;;;;5.13;100.00;101413.75;4961064;28;20106;-72
2021/12/19 08:23:01;;;;;;;11.68;7.15;;;;;;;5.11;100.00;101407.66;4962394;28;20031;-73
2021/12/19 08:25:46;;;;;;;11.57;7.28;;;;;;;5.56;100.00;101391.84;4962063;28;20030;-74
2021/12/19 08:28:32;;;;;;;13.80;7.95;;;;;;;5.23;100.00;101394.88;4976647;28;20023;-72
2021/12/19 08:31:19;;;;;;;12.65;7.88;;;;;;;5.19;100.00;101378.34;4962270;28;20101;-71
2021/12/19 08:34:05;;;;;;;13.35;7.90;;;;;;;5.86;100.00;101376.69;4975345;28;20459;-74
2021/12/19 08:36:51;;;;;;;11.32;8.15;;;;;;;5.35;100.00;101382.91;4976010;28;20460;-73
2021/12/19 08:39:38;;;;;;;12.93;7.75;;;;;;;6.10;100.00;101380.44;4961841;28;20418;-73
2021/12/19 08:42:24;;;;;;;13.57;7.75;;;;;;;6.38;100.00;101384.22;4975923;28;20046;-73
2021/12/19 08:45:11;;;;;;;12.07;8.52;;;;;;;6.30;100.00;101375.47;4975264;28;20026;-73
2021/12/19 08:47:57;;;;;;;13.27;8.70;;;;;;;6.23;100.00;101382.31;4975986;28;20113;-73
2021/12/19 08:50:43;;;;;;;17.48;9.18;;;;;;;5.93;100.00;101383.69;4975479;28;20030;-72
2021/12/19 08:53:29;;;;;;;11.95;7.88;;;;;;;6.35;100.00;101382.44;4975155;28;20121;-73
2021/12/19 08:56:14;;;;;;;14.60;9.07;;;;;;;5.78;100.00;101376.53;4975047;28;20121;-73
2021/12/19 08:59:02;;;;;;;15.07;9.23;;;;;;;5.89;100.00;101375.00;4974669;28;20092;-72
2021/12/19 09:01:48;;;;;;;15.43;8.98;;;;;;;5.64;100.00;101362.53;4975581;28;20078;-73
2021/12/19 09:04:34;;;;;;;15.95;9.82;;;;;;;5.78;100.00;101360.09;4975732;28;20117;-73
2021/12/19 09:07:20;;;;;;;16.48;9.80;;;;;;;6.15;100.00;101359.69;4975224;28;20340;-74
2021/12/19 09:10:10;;;;;;;14.95;9.98;;;;;;;5.62;100.00;101355.56;4975356;28;20337;-75
2021/12/19 09:12:57;;;;;;;13.80;9.10;;;;;;;6.05;100.00;101347.41;4978081;28;20027;-74
2021/12/19 09:15:42;;;;;;;16.15;9.88;;;;;;;5.97;100.00;101330.84;4966528;28;20038;-74
2021/12/19 09:18:31;;;;;;;21.92;10.05;;;;;;;6.13;100.00;101333.66;4966618;28;20373;-74
2021/12/19 09:21:16;;;;;;;16.63;10.43;;;;;;;6.17;100.00;101325.03;4978751;28;20372;-74
2021/12/19 09:24:10;;;;;;;16.63;9.75;;;;;;;5.75;100.00;101319.34;4964537;28;20027;-73
2021/12/19 09:26:56;;;;;;;15.77;10.48;;;;;;;5.76;100.00;101317.59;4978397;28;20109;-73
2021/12/19 09:29:42;;;;;;;22.17;11.40;;;;;;;5.97;100.00;101302.25;4965368;28;20035;-73
2021/12/19 09:32:27;;;;;;;17.80;10.85;;;;;;;5.53;100.00;101296.53;4978709;28;20046;-74
2021/12/19 09:35:14;;;;;;;18.52;10.98;;;;;;;5.47;100.00;101298.19;4959054;28;20042;-73
2021/12/19 09:38:01;;;;;;;16.45;10.85;;;;;;;5.81;100.00;101292.53;4958962;28;20086;-73
2021/12/19 09:40:48;;;;;;;20.45;12.05;;;;;;;5.80;100.00;101288.16;4959647;28;20131;-72
2021/12/19 09:43:42;;;;;;;19.85;11.60;;;;;;;5.47;100.00;101284.34;4959513;28;20039;-73
2021/12/19 09:46:31;;;;;;;19.15;12.02;;;;;;;5.50;100.00;101262.72;4959508;28;20090;-75
2021/12/19 09:49:19;;;;;;;18.35;11.73;;;;;;;5.75;100.00;101263.88;4959004;28;20034;-74
2021/12/19 09:52:08;;;;;;;20.67;12.35;;;;;;;6.21;100.00;101258.25;4958700;28;20027;-74
2021/12/19 09:54:54;;;;;;;20.40;12.13;;;;;;;6.28;100.00;101254.88;4959162;28;20372;-73
2021/12/19 09:57:40;;;;;;;19.73;11.38;;;;;;;5.97;100.00;101252.84;4958888;28;20027;-73
2021/12/19 10:00:26;;;;;;;19.48;11.07;;;;;;;5.77;100.00;101236.13;4959047;28;20024;-75
2021/12/19 10:03:11;;;;;;;25.00;13.15;;;;;;;6.07;100.00;101226.94;4958822;28;20098;-73
2021/12/19 10:06:19;;;;;;;20.88;13.02;;;;;;;6.07;100.00;101224.31;4959008;28;20102;-75
2021/12/19 10:09:18;;;;;;;19.65;11.60;;;;;;;5.98;100.00;101213.84;4958724;28;20117;-73
2021/12/19 10:15:26;;;;;;;23.27;13.50;;;;;;;6.42;100.00;101209.88;4958376;28;20047;-73
2021/12/19 10:18:15;;;;;;;22.95;12.68;;;;;;;6.22;100.00;101211.44;4958425;28;20027;-73
2021/12/19 10:21:01;;;;;;;19.88;12.48;;;;;;;6.30;100.00;101214.97;4958399;28;20468;-73
2021/12/19 10:23:48;;;;;;;20.70;12.32;;;;;;;6.50;100.00;101217.72;4958473;28;20475;-73
2021/12/19 10:26:42;;;;;;;19.65;12.52;;;;;;;6.86;100.00;101211.03;4958451;28;20475;-74
2021/12/19 10:29:44;;;;;;;21.85;12.73;;;;;;;6.49;100.00;101216.88;4958373;28;20425;-72
2021/12/19 10:32:30;;;;;;;24.23;14.43;;;;;;;6.52;100.00;101216.91;4958182;28;20027;-73
2021/12/19 10:35:19;;;;;;;25.60;14.05;;;;;;;6.67;100.00;101198.75;4966509;28;20096;-73
2021/12/19 10:38:13;;;;;;;27.88;14.57;;;;;;;6.81;100.00;101188.41;4977494;28;20240;-73
2021/12/19 10:41:08;;;;;;;21.42;14.35;;;;;;;6.79;100.00;101171.94;4977962;28;20391;-74
2021/12/19 10:44:05;;;;;;;21.67;13.50;;;;;;;7.09;100.00;101157.31;4963991;28;20053;-73
2021/12/19 10:46:51;;;;;;;21.40;13.10;;;;;;;6.52;100.00;101169.16;4977885;28;20023;-73
2021/12/19 10:49:38;;;;;;;22.10;14.00;;;;;;;7.24;100.00;101175.56;4963702;28;20027;-73
2021/12/19 10:52:38;;;;;;;26.75;14.63;;;;;;;6.77;100.00;101150.19;4977677;28;20035;-73
2021/12/19 10:55:28;;;;;;;29.40;16.25;;;;;;;6.77;100.00;101137.19;4977650;28;20042;-72
2021/12/19 10:58:23;;;;;;;23.85;14.02;;;;;;;6.98;100.00;101122.50;4976971;28;20057;-74
2021/12/19 11:01:25;;;;;;;22.50;13.48;;;;;;;7.63;100.00;101117.47;4977279;28;20030;-72
2021/12/19 11:04:16;;;;;;;23.55;14.45;;;;;;;7.09;100.00;101101.72;4976941;28;20033;-73
2021/12/19 11:07:02;;;;;;;21.70;13.52;;;;;;;7.13;100.00;101088.69;4976864;28;20027;-73
2021/12/19 11:09:48;;;;;;;22.63;13.43;;;;;;;7.47;100.00;101081.81;4976712;28;20467;-73
2021/12/19 11:12:34;;;;;;;27.35;14.40;;;;;;;7.41;100.00;101085.28;4976779;28;20061;-73
2021/12/19 11:15:20;;;;;;;23.73;14.88;;;;;;;7.19;100.00;101082.63;4976610;28;20022;-73
2021/12/19 11:18:06;;;;;;;24.05;15.40;;;;;;;7.22;100.00;101064.38;4977549;28;20033;-75
2021/12/19 11:20:52;;;;;;;22.77;13.10;;;;;;;7.01;100.00;101061.75;4976433;28;20034;-73
2021/12/19 11:23:37;;;;;;;18.85;12.70;;;;;;;7.29;100.00;101047.91;4976884;28;20411;-73
2021/12/19 11:26:23;;;;;;;21.10;13.95;;;;;;;7.93;100.00;101034.84;4976393;28;20022;-74
2021/12/19 11:29:12;;;;;;;22.02;12.98;;;;;;;7.85;100.00;101035.72;4963042;28;20027;-73
2021/12/19 11:32:04;;;;;;;22.00;13.82;;;;;;;7.88;100.00;101017.47;4963338;28;20023;-72
2021/12/19 11:35:05;;;;;;;20.85;12.70;;;;;;;7.71;100.00;101011.38;4976770;28;20082;-75
2021/12/19 11:37:54;;;;;;;23.30;12.63;;;;;;;7.70;100.00;101002.72;4977169;28;20459;-75
2021/12/19 11:40:40;;;;;;;23.67;13.57;;;;;;;8.14;100.00;100993.03;4963120;28;20054;-74
2021/12/19 11:43:36;;;;;;;20.25;12.57;;;;;;;7.49;100.00;100986.22;4963384;28;20078;-74
2021/12/19 11:46:51;;;;;;;21.67;13.45;;;;;;;7.71;100.00;100986.19;4976275;28;20069;-73
2021/12/19 11:49:37;;;;;;;20.58;12.80;;;;;;;8.06;100.00;100991.31;4962914;28;20467;-73
2021/12/19 11:52:31;;;;;;;22.40;12.90;;;;;;;7.58;100.00;100987.06;4976520;28;20019;-73
2021/12/19 11:55:23;;;;;;;21.65;12.73;;;;;;;8.01;100.00;100987.84;4976368;28;20113;-73
2021/12/19 11:58:09;;;;;;;23.83;13.80;;;;;;;8.04;100.00;100990.47;4976156;28;20371;-73
2021/12/19 12:01:07;;;;;;;22.85;13.13;;;;;;;7.81;100.00;100976.59;4975967;28;20030;-75
2021/12/19 12:03:54;;;;;;;18.92;12.23;;;;;;;7.90;100.00;100967.03;4975741;28;20451;-73
2021/12/19 12:06:43;;;;;;;23.67;12.65;;;;;;;7.49;100.00;100957.53;4976245;28;20046;-75
2021/12/19 12:09:38;;;;;;;21.70;13.68;;;;;;;8.15;100.00;100950.41;4961587;28;20113;-73
2021/12/19 12:12:33;;;;;;;20.85;13.43;;;;;;;7.89;100.00;100933.09;4976506;28;20125;-74
2021/12/19 12:15:32;;;;;;;21.40;13.60;;;;;;;7.90;100.00;100933.09;4975651;28;20360;-74
2021/12/19 12:18:35;;;;;;;21.17;13.75;;;;;;;7.91;100.00;100927.00;4962336;28;20031;-77
2021/12/19 12:21:23;;;;;;;21.60;13.70;;;;;;;8.27;100.00;100926.00;4975571;28;20026;-73
2021/12/19 12:24:12;;;;;;;25.30;15.10;;;;;;;7.91;100.00;100913.09;4975892;28;20065;-75
2021/12/19 12:27:03;;;;;;;18.58;12.57;;;;;;;8.03;100.00;100910.44;4961818;28;20030;-73
2021/12/19 12:29:49;;;;;;;24.63;14.55;;;;;;;8.36;100.00;100912.94;4962507;28;20026;-73
2021/12/19 12:32:35;;;;;;;25.38;14.00;;;;;;;7.91;100.00;100910.47;4961850;28;20051;-74
2021/12/19 12:35:21;;;;;;;21.10;13.50;;;;;;;8.16;100.00;100909.53;4961807;28;20050;-73
2021/12/19 12:38:08;;;;;;;24.67;15.40;;;;;;;7.51;100.00;100911.50;4976364;28;20448;-72
2021/12/19 12:40:58;;;;;;;22.17;13.40;;;;;;;7.28;100.00;100900.22;4975599;28;20049;-73
2021/12/19 12:43:44;;;;;;;23.02;14.18;;;;;;;7.47;100.00;100886.31;4963954;28;20050;-73
2021/12/19 12:46:30;;;;;;;26.75;15.23;;;;;;;7.49;100.00;100882.81;4975351;28;20444;-73
2021/12/19 12:49:24;;;;;;;22.23;14.48;;;;;;;7.39;100.00;100885.47;4965126;28;20035;-74
2021/12/19 12:52:10;;;;;;;22.25;14.20;;;;;;;7.39;100.00;100875.03;4979178;28;20023;-73
2021/12/19 12:55:03;;;;;;;24.02;13.57;;;;;;;7.18;100.00;100865.50;4980090;28;20027;-73
2021/12/19 12:57:49;;;;;;;24.85;13.63;;;;;;;7.06;100.00;100868.13;4979070;28;20376;-74
2021/12/19 13:00:35;;;;;;;23.30;14.57;;;;;;;7.33;100.00;100865.47;4979313;28;20023;-73
2021/12/19 13:03:30;;;;;;;24.98;15.35;;;;;;;7.29;100.00;100868.09;4979279;28;20022;-73
2021/12/19 13:06:37;;;;;;;26.35;15.35;;;;;;;7.30;100.00;100864.59;4979585;28;20027;-73
2021/12/19 13:09:26;;;;;;;27.92;15.93;;;;;;;7.30;100.00;100868.09;4978927;28;20030;-74
2021/12/19 13:12:18;;;;;;;23.73;14.50;;;;;;;7.12;100.00;100855.06;4979616;28;20046;-73
2021/12/19 13:15:06;;;;;;;27.00;14.88;;;;;;;7.53;100.00;100837.63;4964651;28;20030;-72
2021/12/19 13:17:52;;;;;;;24.23;15.05;;;;;;;7.19;100.00;100835.13;4979218;28;20452;-74
2021/12/19 13:20:38;;;;;;;23.55;14.68;;;;;;;7.05;100.00;100823.84;4978816;28;20118;-73
2021/12/19 13:23:24;;;;;;;25.27;15.50;;;;;;;7.27;100.00;100826.38;4979477;28;20019;-74
2021/12/19 13:26:09;;;;;;;25.08;14.98;;;;;;;7.16;100.00;100827.28;4979149;28;20031;-73
2021/12/19 13:28:55;;;;;;;26.38;15.63;;;;;;;7.33;100.00;100826.41;4978949;28;20054;-72
2021/12/19 13:31:41;;;;;;;28.40;16.67;;;;;;;7.34;100.00;100817.69;4979066;28;20039;-72
2021/12/19 13:34:38;;;;;;;24.33;15.15;;;;;;;7.39;100.00;100815.09;4964200;28;20034;-73
2021/12/19 13:37:25;;;;;;;28.98;17.40;;;;;;;7.37;100.00;100809.88;4978576;28;20035;-73
2021/12/19 13:40:13;;;;;;;28.35;16.23;;;;;;;7.60;100.00;100809.78;4964513;28;20050;-72
2021/12/19 13:43:08;;;;;;;28.05;15.77;;;;;;;7.21;100.00;100796.88;4978915;28;20019;-73
2021/12/19 13:45:56;;;;;;;26.90;15.93;;;;;;;7.24;100.00;100784.69;4978147;28;20134;-73
2021/12/19 13:48:48;;;;;;;27.67;16.60;;;;;;;6.79;100.00;100773.53;4964952;28;20089;-72
2021/12/19 13:51:34;;;;;;;23.35;13.77;;;;;;;7.13;100.00;100776.06;4964580;28;20027;-74